sensor_id;sensor_type;location;lat;lon;timestamp;P1;P2;P0
53658;PMS5003;41524;35.624;139.698;2022-12-18T00:00:10;6.00;6.00;
53658;PMS5003;41524;35.624;139.698;2022-12-18T00:05:09;11.00;7.00;
53658;PMS5003;41524;35.624;139.698;2022-12-18T00:10:13;6.00;5.00;
53658;PMS5003;41524;35.624;139.698;2022-12-18T00:15:09;7.00;5.00;
53658;PMS5003;41524;35.624;139.698;2022-12-18T00:20:19;9.00;9.00;
53658;PMS5003;41524;35.624;139.698;2022-12-18T00:25:09;9.00;8.00;
53658;PMS5003;41524;35.624;139.698;2022-12-18T00:30:09;11.00;11.00;
53658;PMS5003;41524;35.624;139.698;2022-12-18T00:35:09;8.00;8.00;
53658;PMS5003;41524;35.624;139.698;2022-12-18T00:40:09;9.00;8.00;
53658;PMS5003;41524;35.624;139.698;2022-12-18T00:45:09;8.00;7.00;
53658;PMS5003;41524;35.624;139.698;2022-12-18T00:50:10;19.00;19.00;
53658;PMS5003;41524;35.624;139.698;2022-12-18T00:55:14;6.00;6.00;
53658;PMS5003;41524;35.624;139.698;2022-12-18T01:00:11;8.00;7.00;
53658;PMS5003;41524;35.624;139.698;2022-12-18T01:05:09;7.00;7.00;
53658;PMS5003;41524;35.624;139.698;2022-12-18T01:10:09;8.00;7.00;
53658;PMS5003;41524;35.624;139.698;2022-12-18T01:15:15;11.00;9.00;
53658;PMS5003;41524;35.624;139.698;2022-12-18T01:20:14;5.00;5.00;
53658;PMS5003;41524;35.624;139.698;2022-12-18T01:25:08;5.00;5.00;
53658;PMS5003;41524;35.624;139.698;2022-12-18T01:30:10;5.00;5.00;
53658;PMS5003;41524;35.624;139.698;2022-12-18T01:35:08;2.00;2.00;
53658;PMS5003;41524;35.624;139.698;2022-12-18T01:40:10;3.00;3.00;
53658;PMS5003;41524;35.624;139.698;2022-12-18T01:45:22;3.00;3.00;
53658;PMS5003;41524;35.624;139.698;2022-12-18T01:50:10;5.00;4.00;
53658;PMS5003;41524;35.624;139.698;2022-12-18T01:55:10;2.00;2.00;
53658;PMS5003;41524;35.624;139.698;2022-12-18T02:00:10;1.00;1.00;
53658;PMS5003;41524;35.624;139.698;2022-12-18T02:05:16;2.00;2.00;
53658;PMS5003;41524;35.624;139.698;2022-12-18T02:10:17;2.00;2.00;
53658;PMS5003;41524;35.624;139.698;2022-12-18T02:15:11;2.00;2.00;
53658;PMS5003;41524;35.624;139.698;2022-12-18T02:20:12;0.00;0.00;
53658;PMS5003;41524;35.624;139.698;2022-12-18T02:25:15;1.00;1.00;
53658;PMS5003;41524;35.624;139.698;2022-12-18T02:30:08;1.00;1.00;
53658;PMS5003;41524;35.624;139.698;2022-12-18T02:35:13;2.00;2.00;
53658;PMS5003;41524;35.624;139.698;2022-12-18T02:40:14;1.00;1.00;
53658;PMS5003;41524;35.624;139.698;2022-12-18T02:45:09;0.00;0.00;
53658;PMS5003;41524;35.624;139.698;2022-12-18T02:50:11;0.00;0.00;
53658;PMS5003;41524;35.624;139.698;2022-12-18T02:55:15;3.00;3.00;
53658;PMS5003;41524;35.624;139.698;2022-12-18T03:00:10;2.00;0.00;
53658;PMS5003;41524;35.624;139.698;2022-12-18T03:05:11;0.00;0.00;
53658;PMS5003;41524;35.624;139.698;2022-12-18T03:10:16;1.00;1.00;
53658;PMS5003;41524;35.624;139.698;2022-12-18T03:15:14;5.00;5.00;
53658;PMS5003;41524;35.624;139.698;2022-12-18T03:20:15;7.00;6.00;
53658;PMS5003;41524;35.624;139.698;2022-12-18T03:25:11;3.00;1.00;
53658;PMS5003;41524;35.624;139.698;2022-12-18T03:30:15;2.00;2.00;
53658;PMS5003;41524;35.624;139.698;2022-12-18T03:35:10;2.00;2.00;
53658;PMS5003;41524;35.624;139.698;2022-12-18T03:40:09;2.00;1.00;
53658;PMS5003;41524;35.624;139.698;2022-12-18T03:45:17;1.00;1.00;
53658;PMS5003;41524;35.624;139.698;2022-12-18T03:50:15;0.00;0.00;
53658;PMS5003;41524;35.624;139.698;2022-12-18T03:55:11;0.00;0.00;
53658;PMS5003;41524;35.624;139.698;2022-12-18T04:00:11;0.00;0.00;
53658;PMS5003;41524;35.624;139.698;2022-12-18T04:05:09;1.00;1.00;
53658;PMS5003;41524;35.624;139.698;2022-12-18T04:10:09;0.00;0.00;
53658;PMS5003;41524;35.624;139.698;2022-12-18T04:15:19;1.00;1.00;
53658;PMS5003;41524;35.624;139.698;2022-12-18T04:20:10;0.00;0.00;
53658;PMS5003;41524;35.624;139.698;2022-12-18T04:25:08;2.00;2.00;
53658;PMS5003;41524;35.624;139.698;2022-12-18T04:30:13;0.00;0.00;
53658;PMS5003;41524;35.624;139.698;2022-12-18T04:35:09;0.00;0.00;
53658;PMS5003;41524;35.624;139.698;2022-12-18T04:40:09;1.00;1.00;
53658;PMS5003;41524;35.624;139.698;2022-12-18T04:45:10;1.00;1.00;
53658;PMS5003;41524;35.624;139.698;2022-12-18T04:50:09;2.00;1.00;
53658;PMS5003;41524;35.624;139.698;2022-12-18T04:55:14;1.00;0.00;
53658;PMS5003;41524;35.624;139.698;2022-12-18T05:00:13;0.00;0.00;
53658;PMS5003;41524;35.624;139.698;2022-12-18T05:05:09;0.00;0.00;
53658;PMS5003;41524;35.624;139.698;2022-12-18T05:10:13;1.00;1.00;
53658;PMS5003;41524;35.624;139.698;2022-12-18T05:15:14;0.00;0.00;
53658;PMS5003;41524;35.624;139.698;2022-12-18T05:20:12;0.00;0.00;
53658;PMS5003;41524;35.624;139.698;2022-12-18T05:25:10;0.00;0.00;
53658;PMS5003;41524;35.624;139.698;2022-12-18T05:30:14;0.00;0.00;
53658;PMS5003;41524;35.624;139.698;2022-12-18T05:35:19;0.00;0.00;
53658;PMS5003;41524;35.624;139.698;2022-12-18T05:40:09;0.00;0.00;
53658;PMS5003;41524;35.624;139.698;2022-12-18T05:45:15;0.00;0.00;
53658;PMS5003;41524;35.624;139.698;2022-12-18T05:50:09;0.00;0.00;
53658;PMS5003;41524;35.624;139.698;2022-12-18T05:55:10;1.00;0.00;
53658;PMS5003;41524;35.624;139.698;2022-12-18T06:00:10;0.00;0.00;
53658;PMS5003;41524;35.624;139.698;2022-12-18T06:05:11;0.00;0.00;
53658;PMS5003;41524;35.624;139.698;2022-12-18T06:10:10;0.00;0.00;
53658;PMS5003;41524;35.624;139.698;2022-12-18T06:15:09;0.00;0.00;
53658;PMS5003;41524;35.624;139.698;2022-12-18T06:20:09;0.00;0.00;
53658;PMS5003;41524;35.624;139.698;2022-12-18T06:25:19;0.00;0.00;
53658;PMS5003;41524;35.624;139.698;2022-12-18T06:30:14;0.00;0.00;
53658;PMS5003;41524;35.624;139.698;2022-12-18T06:35:09;0.00;0.00;
53658;PMS5003;41524;35.624;139.698;2022-12-18T06:40:09;0.00;0.00;
53658;PMS5003;41524;35.624;139.698;2022-12-18T06:45:12;0.00;0.00;
53658;PMS5003;41524;35.624;139.698;2022-12-18T06:50:10;1.00;1.00;
53658;PMS5003;41524;35.624;139.698;2022-12-18T06:55:08;1.00;1.00;
53658;PMS5003;41524;35.624;139.698;2022-12-18T07:00:11;0.00;0.00;
53658;PMS5003;41524;35.624;139.698;2022-12-18T07:05:09;1.00;1.00;
53658;PMS5003;41524;35.624;139.698;2022-12-18T07:10:12;0.00;0.00;
53658;PMS5003;41524;35.624;139.698;2022-12-18T07:15:10;0.00;0.00;
53658;PMS5003;41524;35.624;139.698;2022-12-18T07:20:10;0.00;0.00;
53658;PMS5003;41524;35.624;139.698;2022-12-18T07:25:10;1.00;0.00;
53658;PMS5003;41524;35.624;139.698;2022-12-18T07:30:14;1.00;0.00;
53658;PMS5003;41524;35.624;139.698;2022-12-18T07:35:10;1.00;1.00;
53658;PMS5003;41524;35.624;139.698;2022-12-18T07:40:14;1.00;0.00;
53658;PMS5003;41524;35.624;139.698;2022-12-18T07:45:09;0.00;0.00;
53658;PMS5003;41524;35.624;139.698;2022-12-18T07:50:13;0.00;0.00;
53658;PMS5003;41524;35.624;139.698;2022-12-18T07:55:09;2.00;0.00;
53658;PMS5003;41524;35.624;139.698;2022-12-18T08:00:15;1.00;1.00;
53658;PMS5003;41524;35.624;139.698;2022-12-18T08:05:11;2.00;2.00;
53658;PMS5003;41524;35.624;139.698;2022-12-18T08:10:09;1.00;1.00;
53658;PMS5003;41524;35.624;139.698;2022-12-18T08:15:10;0.00;0.00;
53658;PMS5003;41524;35.624;139.698;2022-12-18T08:20:14;0.00;0.00;
53658;PMS5003;41524;35.624;139.698;2022-12-18T08:25:14;0.00;0.00;
53658;PMS5003;41524;35.624;139.698;2022-12-18T08:30:09;1.00;1.00;
53658;PMS5003;41524;35.624;139.698;2022-12-18T08:35:21;1.00;1.00;
53658;PMS5003;41524;35.624;139.698;2022-12-18T08:40:14;1.00;1.00;
53658;PMS5003;41524;35.624;139.698;2022-12-18T08:45:15;0.00;0.00;
53658;PMS5003;41524;35.624;139.698;2022-12-18T08:50:10;1.00;0.00;
53658;PMS5003;41524;35.624;139.698;2022-12-18T08:55:09;1.00;1.00;
53658;PMS5003;41524;35.624;139.698;2022-12-18T09:00:14;0.00;0.00;
53658;PMS5003;41524;35.624;139.698;2022-12-18T09:05:13;2.00;2.00;
53658;PMS5003;41524;35.624;139.698;2022-12-18T09:10:09;4.00;4.00;
53658;PMS5003;41524;35.624;139.698;2022-12-18T09:15:15;2.00;2.00;
53658;PMS5003;41524;35.624;139.698;2022-12-18T09:20:16;2.00;2.00;
53658;PMS5003;41524;35.624;139.698;2022-12-18T09:25:09;3.00;2.00;
53658;PMS5003;41524;35.624;139.698;2022-12-18T09:30:10;1.00;1.00;
53658;PMS5003;41524;35.624;139.698;2022-12-18T09:35:09;1.00;1.00;
53658;PMS5003;41524;35.624;139.698;2022-12-18T09:40:14;0.00;0.00;
53658;PMS5003;41524;35.624;139.698;2022-12-18T09:45:15;0.00;0.00;
53658;PMS5003;41524;35.624;139.698;2022-12-18T09:50:17;0.00;0.00;
53658;PMS5003;41524;35.624;139.698;2022-12-18T09:55:10;0.00;0.00;
53658;PMS5003;41524;35.624;139.698;2022-12-18T10:00:16;1.00;1.00;
53658;PMS5003;41524;35.624;139.698;2022-12-18T10:05:11;7.00;7.00;
53658;PMS5003;41524;35.624;139.698;2022-12-18T10:10:12;4.00;2.00;
53658;PMS5003;41524;35.624;139.698;2022-12-18T10:15:12;1.00;1.00;
53658;PMS5003;41524;35.624;139.698;2022-12-18T10:20:15;2.00;1.00;
53658;PMS5003;41524;35.624;139.698;2022-12-18T10:25:15;1.00;1.00;
53658;PMS5003;41524;35.624;139.698;2022-12-18T10:30:16;2.00;2.00;
53658;PMS5003;41524;35.624;139.698;2022-12-18T10:35:11;2.00;2.00;
53658;PMS5003;41524;35.624;139.698;2022-12-18T10:40:10;0.00;0.00;
53658;PMS5003;41524;35.624;139.698;2022-12-18T10:45:11;0.00;0.00;
53658;PMS5003;41524;35.624;139.698;2022-12-18T10:50:11;1.00;1.00;
53658;PMS5003;41524;35.624;139.698;2022-12-18T10:55:13;1.00;1.00;
53658;PMS5003;41524;35.624;139.698;2022-12-18T11:00:25;1.00;1.00;
53658;PMS5003;41524;35.624;139.698;2022-12-18T11:05:28;2.00;0.00;
53658;PMS5003;41524;35.624;139.698;2022-12-18T11:10:14;0.00;0.00;
53658;PMS5003;41524;35.624;139.698;2022-12-18T11:15:14;0.00;0.00;
53658;PMS5003;41524;35.624;139.698;2022-12-18T11:20:19;0.00;0.00;
53658;PMS5003;41524;35.624;139.698;2022-12-18T11:25:18;0.00;0.00;
53658;PMS5003;41524;35.624;139.698;2022-12-18T11:30:10;0.00;0.00;
53658;PMS5003;41524;35.624;139.698;2022-12-18T11:35:16;0.00;0.00;
53658;PMS5003;41524;35.624;139.698;2022-12-18T11:40:15;0.00;0.00;
53658;PMS5003;41524;35.624;139.698;2022-12-18T11:45:23;0.00;0.00;
53658;PMS5003;41524;35.624;139.698;2022-12-18T11:50:16;1.00;0.00;
53658;PMS5003;41524;35.624;139.698;2022-12-18T11:55:11;1.00;0.00;
53658;PMS5003;41524;35.624;139.698;2022-12-18T12:00:12;0.00;0.00;
53658;PMS5003;41524;35.624;139.698;2022-12-18T12:05:27;3.00;1.00;
53658;PMS5003;41524;35.624;139.698;2022-12-18T12:10:18;0.00;0.00;
53658;PMS5003;41524;35.624;139.698;2022-12-18T12:15:19;0.00;0.00;
53658;PMS5003;41524;35.624;139.698;2022-12-18T12:20:15;0.00;0.00;
53658;PMS5003;41524;35.624;139.698;2022-12-18T12:25:18;0.00;0.00;
53658;PMS5003;41524;35.624;139.698;2022-12-18T12:30:10;0.00;0.00;
53658;PMS5003;41524;35.624;139.698;2022-12-18T12:35:14;0.00;0.00;
53658;PMS5003;41524;35.624;139.698;2022-12-18T12:40:18;1.00;0.00;
53658;PMS5003;41524;35.624;139.698;2022-12-18T12:45:13;0.00;0.00;
53658;PMS5003;41524;35.624;139.698;2022-12-18T12:50:13;0.00;0.00;
53658;PMS5003;41524;35.624;139.698;2022-12-18T12:55:13;0.00;0.00;
53658;PMS5003;41524;35.624;139.698;2022-12-18T13:00:15;1.00;0.00;
53658;PMS5003;41524;35.624;139.698;2022-12-18T13:05:12;0.00;0.00;
53658;PMS5003;41524;35.624;139.698;2022-12-18T13:10:11;1.00;0.00;
53658;PMS5003;41524;35.624;139.698;2022-12-18T13:15:20;0.00;0.00;
53658;PMS5003;41524;35.624;139.698;2022-12-18T13:20:10;0.00;0.00;
53658;PMS5003;41524;35.624;139.698;2022-12-18T13:25:28;1.00;1.00;
53658;PMS5003;41524;35.624;139.698;2022-12-18T13:30:52;1.00;0.00;
53658;PMS5003;41524;35.624;139.698;2022-12-18T13:35:41;1.00;1.00;
53658;PMS5003;41524;35.624;139.698;2022-12-18T13:40:56;1.00;1.00;
53658;PMS5003;41524;35.624;139.698;2022-12-18T13:45:47;16.00;11.00;
53658;PMS5003;41524;35.624;139.698;2022-12-18T13:50:10;6.00;6.00;
53658;PMS5003;41524;35.624;139.698;2022-12-18T13:55:14;3.00;3.00;
53658;PMS5003;41524;35.624;139.698;2022-12-18T14:00:28;0.00;0.00;
53658;PMS5003;41524;35.624;139.698;2022-12-18T14:05:22;2.00;2.00;
53658;PMS5003;41524;35.624;139.698;2022-12-18T14:10:11;0.00;0.00;
53658;PMS5003;41524;35.624;139.698;2022-12-18T14:20:13;0.00;0.00;
53658;PMS5003;41524;35.624;139.698;2022-12-18T14:25:14;1.00;0.00;
53658;PMS5003;41524;35.624;139.698;2022-12-18T14:30:30;1.00;1.00;
53658;PMS5003;41524;35.624;139.698;2022-12-18T14:35:15;2.00;1.00;
53658;PMS5003;41524;35.624;139.698;2022-12-18T14:40:15;0.00;0.00;
53658;PMS5003;41524;35.624;139.698;2022-12-18T14:45:48;2.00;1.00;
53658;PMS5003;41524;35.624;139.698;2022-12-18T14:50:19;3.00;1.00;
53658;PMS5003;41524;35.624;139.698;2022-12-18T14:55:14;3.00;2.00;
53658;PMS5003;41524;35.624;139.698;2022-12-18T15:00:15;1.00;1.00;
53658;PMS5003;41524;35.624;139.698;2022-12-18T15:05:17;2.00;2.00;
53658;PMS5003;41524;35.624;139.698;2022-12-18T15:10:11;1.00;1.00;
53658;PMS5003;41524;35.624;139.698;2022-12-18T15:15:51;1.00;1.00;
53658;PMS5003;41524;35.624;139.698;2022-12-18T15:20:09;1.00;1.00;
53658;PMS5003;41524;35.624;139.698;2022-12-18T15:25:22;2.00;1.00;
53658;PMS5003;41524;35.624;139.698;2022-12-18T15:30:20;2.00;1.00;
53658;PMS5003;41524;35.624;139.698;2022-12-18T15:35:15;0.00;0.00;
53658;PMS5003;41524;35.624;139.698;2022-12-18T15:40:12;2.00;2.00;
53658;PMS5003;41524;35.624;139.698;2022-12-18T15:45:11;0.00;0.00;
53658;PMS5003;41524;35.624;139.698;2022-12-18T15:50:15;1.00;1.00;
53658;PMS5003;41524;35.624;139.698;2022-12-18T15:55:15;0.00;0.00;
53658;PMS5003;41524;35.624;139.698;2022-12-18T16:00:16;1.00;1.00;
53658;PMS5003;41524;35.624;139.698;2022-12-18T16:05:10;1.00;1.00;
53658;PMS5003;41524;35.624;139.698;2022-12-18T16:10:15;1.00;1.00;
53658;PMS5003;41524;35.624;139.698;2022-12-18T16:15:10;1.00;1.00;
53658;PMS5003;41524;35.624;139.698;2022-12-18T16:20:12;1.00;1.00;
53658;PMS5003;41524;35.624;139.698;2022-12-18T16:25:10;1.00;1.00;
53658;PMS5003;41524;35.624;139.698;2022-12-18T16:30:11;1.00;1.00;
53658;PMS5003;41524;35.624;139.698;2022-12-18T16:35:11;2.00;1.00;
53658;PMS5003;41524;35.624;139.698;2022-12-18T16:40:10;0.00;0.00;
53658;PMS5003;41524;35.624;139.698;2022-12-18T16:45:09;0.00;0.00;
53658;PMS5003;41524;35.624;139.698;2022-12-18T16:50:13;0.00;0.00;
53658;PMS5003;41524;35.624;139.698;2022-12-18T16:55:09;2.00;0.00;
53658;PMS5003;41524;35.624;139.698;2022-12-18T17:00:12;0.00;0.00;
53658;PMS5003;41524;35.624;139.698;2022-12-18T17:05:09;1.00;1.00;
53658;PMS5003;41524;35.624;139.698;2022-12-18T17:10:16;1.00;1.00;
53658;PMS5003;41524;35.624;139.698;2022-12-18T17:15:10;0.00;0.00;
53658;PMS5003;41524;35.624;139.698;2022-12-18T17:20:09;0.00;0.00;
53658;PMS5003;41524;35.624;139.698;2022-12-18T17:25:14;0.00;0.00;
53658;PMS5003;41524;35.624;139.698;2022-12-18T17:30:10;1.00;1.00;
53658;PMS5003;41524;35.624;139.698;2022-12-18T17:35:09;2.00;2.00;
53658;PMS5003;41524;35.624;139.698;2022-12-18T17:40:10;1.00;1.00;
53658;PMS5003;41524;35.624;139.698;2022-12-18T17:45:14;1.00;1.00;
53658;PMS5003;41524;35.624;139.698;2022-12-18T17:50:09;1.00;1.00;
53658;PMS5003;41524;35.624;139.698;2022-12-18T17:55:09;2.00;1.00;
53658;PMS5003;41524;35.624;139.698;2022-12-18T18:00:09;0.00;0.00;
53658;PMS5003;41524;35.624;139.698;2022-12-18T18:05:19;2.00;1.00;
53658;PMS5003;41524;35.624;139.698;2022-12-18T18:10:10;0.00;0.00;
53658;PMS5003;41524;35.624;139.698;2022-12-18T18:15:10;0.00;0.00;
53658;PMS5003;41524;35.624;139.698;2022-12-18T18:20:10;2.00;1.00;
53658;PMS5003;41524;35.624;139.698;2022-12-18T18:25:10;1.00;1.00;
53658;PMS5003;41524;35.624;139.698;2022-12-18T18:30:10;4.00;3.00;
53658;PMS5003;41524;35.624;139.698;2022-12-18T18:35:09;1.00;1.00;
53658;PMS5003;41524;35.624;139.698;2022-12-18T18:40:09;2.00;2.00;
53658;PMS5003;41524;35.624;139.698;2022-12-18T18:45:09;4.00;3.00;
53658;PMS5003;41524;35.624;139.698;2022-12-18T18:50:10;0.00;0.00;
53658;PMS5003;41524;35.624;139.698;2022-12-18T18:55:10;1.00;1.00;
53658;PMS5003;41524;35.624;139.698;2022-12-18T19:00:10;1.00;1.00;
53658;PMS5003;41524;35.624;139.698;2022-12-18T19:05:09;2.00;2.00;
53658;PMS5003;41524;35.624;139.698;2022-12-18T19:10:09;1.00;1.00;
53658;PMS5003;41524;35.624;139.698;2022-12-18T19:15:13;1.00;1.00;
53658;PMS5003;41524;35.624;139.698;2022-12-18T19:20:10;1.00;1.00;
53658;PMS5003;41524;35.624;139.698;2022-12-18T19:25:09;1.00;1.00;
53658;PMS5003;41524;35.624;139.698;2022-12-18T19:30:10;2.00;2.00;
53658;PMS5003;41524;35.624;139.698;2022-12-18T19:35:09;1.00;1.00;
53658;PMS5003;41524;35.624;139.698;2022-12-18T19:40:09;1.00;1.00;
53658;PMS5003;41524;35.624;139.698;2022-12-18T19:45:10;1.00;1.00;
53658;PMS5003;41524;35.624;139.698;2022-12-18T19:50:09;3.00;1.00;
53658;PMS5003;41524;35.624;139.698;2022-12-18T19:55:09;3.00;2.00;
53658;PMS5003;41524;35.624;139.698;2022-12-18T20:00:10;1.00;1.00;
53658;PMS5003;41524;35.624;139.698;2022-12-18T20:05:10;3.00;3.00;
53658;PMS5003;41524;35.624;139.698;2022-12-18T20:10:10;1.00;1.00;
53658;PMS5003;41524;35.624;139.698;2022-12-18T20:15:09;1.00;1.00;
53658;PMS5003;41524;35.624;139.698;2022-12-18T20:20:10;2.00;2.00;
53658;PMS5003;41524;35.624;139.698;2022-12-18T20:25:13;2.00;2.00;
53658;PMS5003;41524;35.624;139.698;2022-12-18T20:30:12;3.00;3.00;
53658;PMS5003;41524;35.624;139.698;2022-12-18T20:35:09;3.00;1.00;
53658;PMS5003;41524;35.624;139.698;2022-12-18T20:40:09;2.00;2.00;
53658;PMS5003;41524;35.624;139.698;2022-12-18T20:45:09;2.00;1.00;
53658;PMS5003;41524;35.624;139.698;2022-12-18T20:50:09;0.00;0.00;
53658;PMS5003;41524;35.624;139.698;2022-12-18T20:55:11;1.00;1.00;
53658;PMS5003;41524;35.624;139.698;2022-12-18T21:00:10;2.00;2.00;
53658;PMS5003;41524;35.624;139.698;2022-12-18T21:05:10;3.00;1.00;
53658;PMS5003;41524;35.624;139.698;2022-12-18T21:10:10;3.00;1.00;
53658;PMS5003;41524;35.624;139.698;2022-12-18T21:15:09;0.00;0.00;
53658;PMS5003;41524;35.624;139.698;2022-12-18T21:20:09;3.00;3.00;
53658;PMS5003;41524;35.624;139.698;2022-12-18T21:25:10;2.00;2.00;
53658;PMS5003;41524;35.624;139.698;2022-12-18T21:30:15;1.00;1.00;
53658;PMS5003;41524;35.624;139.698;2022-12-18T21:35:11;4.00;2.00;
53658;PMS5003;41524;35.624;139.698;2022-12-18T21:40:13;2.00;1.00;
53658;PMS5003;41524;35.624;139.698;2022-12-18T21:45:14;1.00;1.00;
53658;PMS5003;41524;35.624;139.698;2022-12-18T21:50:09;2.00;2.00;
53658;PMS5003;41524;35.624;139.698;2022-12-18T21:55:09;3.00;2.00;
53658;PMS5003;41524;35.624;139.698;2022-12-18T22:00:14;1.00;1.00;
53658;PMS5003;41524;35.624;139.698;2022-12-18T22:05:13;3.00;1.00;
53658;PMS5003;41524;35.624;139.698;2022-12-18T22:10:09;3.00;2.00;
53658;PMS5003;41524;35.624;139.698;2022-12-18T22:15:14;2.00;2.00;
53658;PMS5003;41524;35.624;139.698;2022-12-18T22:20:14;2.00;2.00;
53658;PMS5003;41524;35.624;139.698;2022-12-18T22:25:14;4.00;3.00;
53658;PMS5003;41524;35.624;139.698;2022-12-18T22:30:10;3.00;3.00;
53658;PMS5003;41524;35.624;139.698;2022-12-18T22:35:18;1.00;1.00;
53658;PMS5003;41524;35.624;139.698;2022-12-18T22:40:10;3.00;3.00;
53658;PMS5003;41524;35.624;139.698;2022-12-18T22:45:14;3.00;3.00;
53658;PMS5003;41524;35.624;139.698;2022-12-18T22:50:11;2.00;2.00;
53658;PMS5003;41524;35.624;139.698;2022-12-18T22:55:10;3.00;3.00;
53658;PMS5003;41524;35.624;139.698;2022-12-18T23:00:21;1.00;1.00;
53658;PMS5003;41524;35.624;139.698;2022-12-18T23:05:12;2.00;1.00;
53658;PMS5003;41524;35.624;139.698;2022-12-18T23:10:09;2.00;2.00;
53658;PMS5003;41524;35.624;139.698;2022-12-18T23:15:09;2.00;2.00;
53658;PMS5003;41524;35.624;139.698;2022-12-18T23:20:15;1.00;1.00;
53658;PMS5003;41524;35.624;139.698;2022-12-18T23:25:09;3.00;1.00;
53658;PMS5003;41524;35.624;139.698;2022-12-18T23:30:11;1.00;1.00;
53658;PMS5003;41524;35.624;139.698;2022-12-18T23:35:09;4.00;1.00;
53658;PMS5003;41524;35.624;139.698;2022-12-18T23:40:13;1.00;1.00;
53658;PMS5003;41524;35.624;139.698;2022-12-18T23:45:17;1.00;1.00;
53658;PMS5003;41524;35.624;139.698;2022-12-18T23:50:09;3.00;3.00;
53658;PMS5003;41524;35.624;139.698;2022-12-18T23:55:10;2.00;2.00;
